Slide Mountain Weather observations

Data are for 10 minute period ending at time listed.
 Day   Time   Solar   Ave.   Ave.  Ave.  Vector  Max.    Baro.  
  of    of     Rad.   Air    Rel.  Wind   Wind   Wind   Press.  
Year   Day            Temp.  Hum.  Speed  Dir.   Gust           
2014   (PST)  Kw/m2    F      %     mph   deg.    mph     mb.   
-----------------------------------------------------------------
 332    0:50   0.00   34.7    20   51.9   250     62.6    711.8 
 332    1:00   0.00   34.7    18   52.3   251     65.3    711.7 
 332    1:10   0.00   34.7    18   51.2   250     62.8    711.7 
 332    1:20   0.00   34.6    17   52.7   252     65.2    711.6 
 332    1:30   0.00   34.6    17   54.9   253     70.0    711.6 
 332    1:40   0.00   34.6    17   55.4   251     68.9    711.5 
 332    1:50   0.00   34.6    16   56.3   251     69.9    711.5 
 332    2:00   0.00   34.8    14   56.8   253     72.7    711.3 
 332    2:10   0.00   35.0    13   59.3   252     72.7    711.2 
 332    2:20   0.00   34.9    14   58.1   253     71.2    711.2 
 332    2:30   0.00   34.9    14   57.3   252     69.8    711.2 
 332    2:40   0.00   34.8    13   60.4   252     73.8    711.0 
 332    2:50   0.00   34.9    12   59.9   251     74.9    710.9 
 332    3:00   0.00   34.8    12   58.8   253     70.2    710.9 
 332    3:10   0.00   34.7    12   60.2   252     80.2    710.8 
 332    3:20   0.00   34.5    12   58.6   253     74.9    710.8 
 332    3:30   0.00   34.5    12   58.7   253     75.1    710.7 
 332    3:40   0.00   34.5    12   57.9   252     77.8    710.6 
 332    3:50   0.00   34.3    12   57.2   254     70.6    710.5 
 332    4:00   0.00   34.2    12   57.0   250     71.1    710.3 
 332    4:10   0.00   34.0    13   56.1   253     67.7    710.3 
 332    4:20   0.00   34.0    13   55.8   252     69.2    710.2 
 332    4:30   0.00   34.0    13   57.9   248     72.7    710.0 
 332    4:40   0.00   34.0    13   57.8   254     76.7    709.9 
 332    4:50   0.00   33.9    14   58.1   253     72.1    709.8 
 332    5:00   0.00   33.8    14   57.8   252     71.3    709.7 
 332    5:10   0.00   33.9    14   58.9   251     74.1    709.7 
 332    5:20   0.00   34.0    14   58.8   250     71.8    709.6 
 332    5:30   0.00   33.9    13   59.6   250     75.3    709.6 
 332    5:40   0.00   33.9    13   59.4   253     74.1    709.6 
 332    5:50   0.00   33.9    14   58.8   254     73.0    709.6 
 332    6:00   0.00   33.6    14   57.2   251     75.2    709.6 
 332    6:10   0.00   33.4    14   56.2   252     74.6    709.6 
 332    6:20   0.00   33.4    14   56.5   251     69.3    709.6 
 332    6:30   0.00   33.1    16   55.0   250     66.1    709.6 
 332    6:40   0.00   33.0    18   53.0   250     67.4    709.7 
 332    6:50   0.00   32.8    19   52.2   252     65.9    709.7 
 332    7:00   0.00   33.0    16   53.1   250     68.3    709.7 
 332    7:10   0.00   32.9    17   52.5   249     64.6    709.7 
 332    7:20   0.01   32.5    20   51.8   252     70.6    709.7 
 332    7:30   0.01   32.5    21   53.0   253     69.9    709.7 
 332    7:40   0.04   32.7    20   54.1   252     66.1    709.8 
 332    7:50   0.09   33.6    12   55.4   252     71.4    709.7 
 332    8:00   0.12   33.8    11   55.3   250     77.5    709.7 
 332    8:10   0.14   33.6    11   52.7   255     67.4    709.9 
 332    8:20   0.17   33.9    11   52.8   252     71.0    710.0 
 332    8:30   0.19   34.0    11   50.4   252     65.3    710.0 
 332    8:40   0.21   34.1    12   49.8   250     65.0    710.2 
 332    8:50   0.23   34.3    12   50.8   247     66.5    710.2 
 332    9:00   0.25   34.5    12   50.9   251     68.5    710.2 
 332    9:10   0.27   34.7    12   49.1   249     67.4    710.4 
 332    9:20   0.29   34.8    12   47.3   250     68.1    710.4 
 332    9:30   0.31   35.1    12   45.2   252     63.6    710.6 
 332    9:40   0.33   35.4    12   43.2   251     58.7    710.6 
 332    9:50   0.34   35.7    12   42.5   246     64.2    710.7 
 332   10:00   0.36   36.0    12   40.9   247     56.8    710.8 
 332   10:10   0.37   36.3    12   39.2   246     57.1    710.7 
 332   10:20   0.38   36.2    12   43.2   242     59.6    710.5 
 332   10:30   0.40   36.4    13   39.2   241     57.1    710.5 
 332   10:40   0.41   36.3    14   41.9   243     57.4    710.3 
 332   10:50   0.42   36.4    15   40.9   245     61.8    710.2 
 332   11:00   0.42   36.6    15   40.7   243     60.2    710.1 
 332   11:10   0.43   36.7    14   41.2   249     55.4    710.0 
 332   11:20   0.44   37.0    14   41.0   246     64.2    709.9 
 332   11:30   0.45   36.9    12   44.0   251     67.3    709.7 
 332   11:40   0.45   36.9    12   44.1   248     60.0    709.6 
 332   11:50   0.48   37.1    12   42.7   249     61.4    709.5 
 332   12:00   0.50   37.3    12   43.2   248     66.6    709.4 
 332   12:10   0.46   37.2    13   42.8   249     60.4    709.2 
 332   12:20   0.29   36.7    13   38.5   247     57.1    709.2 
 332   12:30   0.27   35.8    16   38.9   246     64.5    709.0 
 332   12:40   0.24   35.1    17   42.6   242     61.1    708.9 
 332   12:50   0.18   34.5    19   42.7   243     59.3    708.7 
 332   13:00   0.15   34.1    21   40.3   243     53.6    708.7 
 332   13:10   0.18   33.9    22   42.8   245     64.0    708.6 
 332   13:20   0.30   34.6    22   40.2   244     59.8    708.7 
 332   13:30   0.28   34.9    21   40.7   246     59.0    708.5 
 332   13:40   0.30   35.6    22   37.1   243     57.2    708.5 
 332   13:50   0.28   35.3    23   38.6   240     56.8    708.4 
 332   14:00   0.30   35.3    24   38.7   239     51.7    708.3 
 332   14:10   0.32   35.8    24   35.9   241     51.0    708.3 
 332   14:20   0.21   35.3    26   37.2   243     51.6    708.1 
 332   14:30   0.28   35.3    27   36.0   239     51.9    708.1 
 332   14:40   0.27   35.4    26   38.9   244     50.6    707.9 
 332   14:50   0.25   35.1    26   39.9   241     59.3    707.8 
 332   15:00   0.23   35.0    26   38.9   242     54.7    707.7 
 332   15:10   0.21   34.7    25   42.5   238     61.6    707.5 
 332   15:20   0.18   34.7    25   39.2   240     51.9    707.4 
 332   15:30   0.16   34.5    25   40.7   239     61.2    707.3 
 332   15:40   0.14   34.4    24   39.3   239     56.5    707.2 
 332   15:50   0.12   34.0    25   39.7   240     54.3    707.2 
 332   16:00   0.09   33.7    26   39.7   241     60.6    707.0 
 332   16:10   0.05   33.2    26   39.8   242     52.8    706.8 
 332   16:20   0.01   32.1    28   41.3   243     55.8    706.7 
 332   16:30   0.01   31.5    30   39.7   240     54.2    706.6 
 332   16:40   0.01   31.4    32   41.0   239     53.9    706.5 
 332   16:50   0.00   30.9    33   41.9   243     63.6    706.3 
 332   17:00   0.00   30.7    34   41.0   243     58.5    706.3 
 332   17:10   0.00   30.5    37   41.9   241     55.1    706.3 
 332   17:20   0.00   30.4    37   42.7   241     59.4    706.2 
 332   17:30   0.00   30.2    38   41.5   242     54.8    706.2 
 332   17:40   0.00   30.0    41   40.0   241     54.6    706.1 
 332   17:50   0.00   29.9    40   42.4   243     62.2    705.9 
 332   18:00   0.00   29.8    40   45.0   241     60.2    705.8 
 332   18:10   0.00   29.7    40   45.8   241     61.0    705.8 
 332   18:20   0.00   29.7    40   45.8   240     59.6    705.7 
 332   18:30   0.00   29.7    40   43.8   240     60.2    705.7 
 332   18:40   0.00   29.5    42   44.1   242     67.7    705.7 
 332   18:50   0.00   29.3    42   43.2   241     60.9    705.6 
 332   19:00   0.00   29.3    42   41.8   240     59.5    705.6 
 332   19:10   0.00   29.1    43   41.1   241     60.3    705.6 
 332   19:20   0.00   29.0    42   40.5   241     58.2    705.6 
 332   19:30   0.00   29.0    40   40.4   242     56.0    705.5 
 332   19:40   0.00   28.9    38   39.9   236     57.1    705.4 
 332   19:50   0.00   29.0    36   40.4   239     59.5    705.3 
 332   20:00   0.00   29.1    35   40.9   242     55.6    705.1 
 332   20:10   0.00   29.0    36   40.6   242     53.9    705.1 
 332   20:20   0.00   29.1    34   40.5   239     54.0    705.2 
 332   20:30   0.00   29.2    32   39.6   242     54.0    705.1 
 332   20:40   0.00   29.4    30   40.9   242     60.2    705.0 
 332   20:50   0.00   29.3    30   40.7   240     56.9    705.0 
 332   21:00   0.00   29.1    30   40.3   243     57.5    705.0 
 332   21:10   0.00   29.0    31   41.2   245     58.2    704.9 
 332   21:20   0.00   29.2    29   41.9   240     58.7    704.8 
 332   21:30   0.00   29.1    29   43.0   243     59.4    704.9 
 332   21:40   0.00   29.0    26   47.7   248     63.2    704.8 
 332   21:50   0.00   29.0    24   53.0   248     72.8    704.7 
 332   22:00   0.00   28.7    25   52.1   251     67.1    704.9 
 332   22:10   0.00   28.4    22   51.5   251     67.3    704.7 
 332   22:20   0.00   28.2    22   49.0   251     64.5    704.5 
 332   22:30   0.00   27.7    23   50.9   248     69.7    704.4 
 332   22:40   0.00   27.3    23   48.9   249     64.2    704.5 
 332   22:50   0.00   27.2    25   53.5   252     68.8    704.4 
 332   23:00   0.00   26.9    28   57.0   251     73.5    704.1 
 332   23:10   0.00   26.6    39   56.0   250     81.1    704.2 
 332   23:20   0.00   26.0    53   62.5   250     88.9    703.8 
 332   23:30   0.00   23.2    77   65.9   248     91.2    703.8 
 332   23:40   0.00   23.4    72   63.9   247     89.6    703.8 
 332   23:50   0.00   22.1    83   63.5   248     84.9    703.7 
 333    0:00   0.00   20.7    95   62.7   246     80.8    703.8 
 333    0:10   0.00   20.6    96   56.5   246     76.6    703.7 
 333    0:20   0.00   20.5    96   59.3   246     77.4    703.4 
 333    0:30   0.00   20.2    95   59.3   247     85.4    703.5 
 333    0:40   0.00   20.6    94   57.2   246     74.2    703.6 

Return to Slide Mountain graphs page.


Western Regional Climate Center,wrcc@dri.edu